Terminal Aerodrome Forecast
Issued by NWS

Home | Current Version | Previous Version | Text Only | Print | Product List | Glossary On
Versions: 1 2 3 4 5 6 7 8 9 10 11 12 13 14 15 16 17 18 19
000
FTUS45 KGGW 282300
TAFSDY
TAF
KSDY 282326Z 2900/2924 24013KT P6SM BKN170
     FM290900 30012KT P6SM BKN070
     FM291200 33015KT P6SM VCSH OVC050
     FM291800 33015KT 2SM -SHSN BLSN OVC030
      AMD LTD TO CLD VIS AND WIND=

USA.gov is the U.S. government's official web portal to all federal, state and local government web resources and services.